createdAt,value
2022-08-05T00:01:00.994Z,25.27
2022-08-05T00:04:23.731Z,25.26
2022-08-05T00:07:59.957Z,25.12
2022-08-05T00:10:52.872Z,25.10
2022-08-05T00:13:56.196Z,25.05
2022-08-05T00:17:01.825Z,25.08
2022-08-05T00:20:07.087Z,24.91
2022-08-05T00:23:12.598Z,24.85
2022-08-05T00:26:17.108Z,24.77
2022-08-05T00:29:22.420Z,24.78
2022-08-05T00:32:28.216Z,24.73
2022-08-05T00:35:33.236Z,24.65
2022-08-05T00:38:40.641Z,24.52
2022-08-05T00:41:51.739Z,24.43
2022-08-05T00:44:58.370Z,24.35
2022-08-05T00:48:05.960Z,24.39
2022-08-05T00:51:51.504Z,24.29
2022-08-05T00:54:33.844Z,24.24
2022-08-05T00:57:55.477Z,24.18
2022-08-05T01:01:00.163Z,24.14
2022-08-05T01:04:04.012Z,24.12
2022-08-05T01:07:15.012Z,24.14
2022-08-05T01:10:28.979Z,24.10
2022-08-05T01:13:59.010Z,24.01
2022-08-05T01:17:08.084Z,23.98
2022-08-05T01:20:27.517Z,23.93
2022-08-05T01:23:52.991Z,23.90
2022-08-05T01:27:17.889Z,23.95
2022-08-05T01:30:39.103Z,23.87
2022-08-05T01:33:51.908Z,23.81
2022-08-05T01:37:03.952Z,23.67
2022-08-05T01:40:10.591Z,23.69
2022-08-05T01:43:21.935Z,23.65
2022-08-05T01:46:42.466Z,23.65
2022-08-05T01:50:01.494Z,23.60
2022-08-05T01:53:11.258Z,23.55
2022-08-05T01:58:18.879Z,23.47
2022-08-05T01:59:42.069Z,23.49
2022-08-05T02:02:57.562Z,23.40
2022-08-05T02:06:03.550Z,23.32
2022-08-05T02:09:29.800Z,23.39
2022-08-05T02:12:51.034Z,23.26
2022-08-05T02:16:02.830Z,23.39
2022-08-05T02:19:14.935Z,23.52
2022-08-05T02:22:25.811Z,23.56
2022-08-05T02:25:49.092Z,23.53
2022-08-05T02:28:54.473Z,23.52
2022-08-05T02:31:59.198Z,23.54
2022-08-05T02:35:14.553Z,23.59
2022-08-05T02:38:25.408Z,23.52
2022-08-05T02:41:36.441Z,23.55
2022-08-05T02:44:58.289Z,23.58
2022-08-05T02:48:11.710Z,23.53
2022-08-05T02:51:18.350Z,23.51
2022-08-05T02:54:37.173Z,23.57
2022-08-05T02:58:09.164Z,23.57
2022-08-05T03:01:05.856Z,23.54
2022-08-05T03:04:14.568Z,23.50
2022-08-05T03:08:00.821Z,23.52
2022-08-05T03:11:50.051Z,23.49
2022-08-05T03:14:13.449Z,23.39
2022-08-05T03:17:16.797Z,23.35
2022-08-05T03:20:19.823Z,23.43
2022-08-05T03:23:25.742Z,23.35
2022-08-05T03:26:31.123Z,23.33
2022-08-05T03:29:45.972Z,23.37
2022-08-05T03:33:00.825Z,23.37
2022-08-05T03:36:06.726Z,23.35
2022-08-05T03:39:26.635Z,23.32
2022-08-05T03:42:32.787Z,23.33
2022-08-05T03:45:58.215Z,23.46
2022-08-05T03:49:02.221Z,23.41
2022-08-05T03:52:36.992Z,23.43
2022-08-05T03:56:06.027Z,23.42
2022-08-05T03:59:09.263Z,23.42
2022-08-05T04:02:17.387Z,23.36
2022-08-05T04:05:40.213Z,23.35
2022-08-05T04:08:45.015Z,23.42
2022-08-05T04:11:53.018Z,23.43
2022-08-05T04:14:57.703Z,23.47
2022-08-05T04:18:07.229Z,23.46
2022-08-05T04:21:12.544Z,23.53
2022-08-05T04:24:35.718Z,23.45
2022-08-05T04:27:43.882Z,23.44
2022-08-05T04:31:01.553Z,23.51
2022-08-05T04:34:19.697Z,23.56
2022-08-05T04:37:31.579Z,23.58
2022-08-05T04:40:51.337Z,23.60
2022-08-05T04:43:56.107Z,23.70
2022-08-05T04:47:09.162Z,23.65
2022-08-05T04:50:37.257Z,23.74
2022-08-05T04:53:47.498Z,23.76
2022-08-05T04:56:50.599Z,23.85
2022-08-05T05:00:01.209Z,23.91
2022-08-05T05:03:04.724Z,23.97
2022-08-05T05:06:39.152Z,24.01
2022-08-05T05:09:34.658Z,24.02
2022-08-05T05:12:40.561Z,24.06
2022-08-05T05:15:57.895Z,24.06
2022-08-05T05:19:18.608Z,24.14
2022-08-05T05:22:27.044Z,24.19
2022-08-05T05:25:40.577Z,24.22
2022-08-05T05:28:45.137Z,24.24
2022-08-05T05:31:49.665Z,24.27
2022-08-05T05:34:54.196Z,24.41
2022-08-05T05:38:01.661Z,24.46
2022-08-05T05:41:07.549Z,24.46
2022-08-05T05:44:36.955Z,24.54
2022-08-05T05:48:06.831Z,24.59
2022-08-05T05:51:14.993Z,24.60
2022-08-05T05:54:19.685Z,24.67
2022-08-05T05:57:22.936Z,24.67
2022-08-05T06:00:31.510Z,24.62
2022-08-05T06:03:53.605Z,24.70
2022-08-05T06:07:01.425Z,24.62
2022-08-05T06:10:10.147Z,24.68
2022-08-05T06:13:13.691Z,24.71
2022-08-05T06:16:29.347Z,24.79
2022-08-05T06:19:36.642Z,24.89
2022-08-05T06:22:40.485Z,25.03
2022-08-05T06:26:12.309Z,25.07
2022-08-05T06:29:42.789Z,25.03
2022-08-05T06:32:29.938Z,24.98
2022-08-05T06:36:07.270Z,25.04
2022-08-05T06:38:57.880Z,25.03
2022-08-05T06:42:04.176Z,25.16
2022-08-05T06:45:09.641Z,25.29
2022-08-05T06:48:50.373Z,25.49
2022-08-05T06:51:48.233Z,25.69
2022-08-05T06:54:53.300Z,25.97
2022-08-05T06:58:03.446Z,26.15
2022-08-05T07:01:21.024Z,26.09
2022-08-05T07:04:24.827Z,25.99
2022-08-05T07:07:35.496Z,25.87
2022-08-05T07:10:53.467Z,25.77
2022-08-05T07:14:20.027Z,25.91
2022-08-05T07:17:58.538Z,26.07
2022-08-05T07:20:46.784Z,26.15
2022-08-05T07:23:52.370Z,26.25
2022-08-05T07:26:55.575Z,26.56
2022-08-05T07:30:24.410Z,26.60
2022-08-05T07:33:36.544Z,26.60
2022-08-05T07:36:40.769Z,26.60
2022-08-05T07:40:04.063Z,26.69
2022-08-05T07:43:20.190Z,26.67
2022-08-05T07:46:26.041Z,26.63
2022-08-05T07:49:29.501Z,26.51
2022-08-05T07:52:32.481Z,26.30
2022-08-05T07:56:05.218Z,26.16
2022-08-05T07:58:59.823Z,26.27
2022-08-05T08:02:03.349Z,26.31
2022-08-05T08:05:07.227Z,26.25
2022-08-05T08:08:15.171Z,26.12
2022-08-05T08:11:19.711Z,26.09
2022-08-05T08:14:30.816Z,26.08
2022-08-05T08:17:35.263Z,25.91
2022-08-05T08:21:00.371Z,25.85
2022-08-05T08:24:04.946Z,25.86
2022-08-05T08:27:09.997Z,25.90
2022-08-05T08:30:27.677Z,26.09
2022-08-05T08:33:38.290Z,26.05
2022-08-05T08:36:48.856Z,26.00
2022-08-05T08:39:57.956Z,25.91
2022-08-05T08:45:16.101Z,25.78
2022-08-05T08:46:31.393Z,25.84
2022-08-05T08:50:05.720Z,25.73
2022-08-05T08:53:07.847Z,25.70
2022-08-05T08:56:15.711Z,25.70
2022-08-05T08:59:27.619Z,25.75
2022-08-05T09:02:37.115Z,25.66
2022-08-05T09:06:08.010Z,25.40
2022-08-05T09:09:06.365Z,25.10
2022-08-05T09:12:20.396Z,25.00
2022-08-05T09:15:25.863Z,24.94
2022-08-05T09:18:30.056Z,25.01
2022-08-05T09:22:22.594Z,25.09
2022-08-05T09:25:00.803Z,25.23
2022-08-05T09:28:16.471Z,25.27
2022-08-05T09:32:42.204Z,25.27
2022-08-05T09:34:50.723Z,25.29
2022-08-05T09:38:12.289Z,25.28
2022-08-05T09:41:18.836Z,25.32
2022-08-05T09:44:35.881Z,25.22
2022-08-05T09:47:56.295Z,25.28
2022-08-05T09:51:01.764Z,25.39
2022-08-05T09:54:08.483Z,25.38
2022-08-05T09:57:29.555Z,25.43
2022-08-05T10:00:38.709Z,25.23
2022-08-05T10:04:00.128Z,25.11
2022-08-05T10:07:06.139Z,25.18
2022-08-05T10:10:28.179Z,25.03
2022-08-05T10:13:47.435Z,25.12
2022-08-05T10:16:53.425Z,25.26
2022-08-05T10:20:04.317Z,24.87
2022-08-05T10:23:34.691Z,24.95
2022-08-05T10:26:51.266Z,25.08
2022-08-05T10:30:06.317Z,25.19
2022-08-05T10:33:18.968Z,25.41
2022-08-05T10:36:26.027Z,25.66
2022-08-05T10:39:59.180Z,25.58
2022-08-05T10:43:14.886Z,25.50
2022-08-05T10:46:21.357Z,25.47
2022-08-05T10:49:33.447Z,25.23
2022-08-05T10:52:58.728Z,25.07
2022-08-05T10:56:21.311Z,25.05
2022-08-05T11:00:02.766Z,24.89
2022-08-05T11:03:24.858Z,24.79
2022-08-05T11:06:31.084Z,24.89
2022-08-05T11:09:46.868Z,24.98
2022-08-05T11:12:55.322Z,25.04
2022-08-05T11:16:33.966Z,25.13
2022-08-05T11:20:10.871Z,25.46
2022-08-05T11:24:05.750Z,25.96
2022-08-05T11:27:51.491Z,26.66
2022-08-05T11:31:58.457Z,27.16
2022-08-05T11:34:55.318Z,27.54
2022-08-05T11:38:28.945Z,27.60
2022-08-05T11:41:58.090Z,27.28
2022-08-05T11:44:53.832Z,27.17
2022-08-05T11:47:58.872Z,27.04
2022-08-05T11:51:03.040Z,27.50
2022-08-05T11:54:07.143Z,28.06
2022-08-05T11:57:25.516Z,28.54
2022-08-05T12:00:32.591Z,29.14
2022-08-05T12:03:44.572Z,29.38
2022-08-05T12:07:01.779Z,29.06
2022-08-05T12:10:09.634Z,29.21
2022-08-05T12:13:47.667Z,29.11
2022-08-05T12:16:47.191Z,29.24
2022-08-05T12:20:27.240Z,29.30
2022-08-05T12:23:16.653Z,29.22
2022-08-05T12:26:19.936Z,29.55
2022-08-05T12:29:25.448Z,30.00
2022-08-05T12:32:32.361Z,30.34
2022-08-05T12:35:37.153Z,30.92
2022-08-05T12:38:43.317Z,31.43
2022-08-05T12:41:47.594Z,31.84
2022-08-05T12:44:51.787Z,32.20
2022-08-05T12:48:01.552Z,32.25
2022-08-05T12:52:10.511Z,32.38
2022-08-05T12:54:45.711Z,32.28
2022-08-05T12:58:52.426Z,31.76
2022-08-05T13:02:03.682Z,31.35
2022-08-05T13:04:54.304Z,30.71
2022-08-05T13:08:00.252Z,30.57
2022-08-05T13:11:04.437Z,30.78
2022-08-05T13:14:20.369Z,30.41
2022-08-05T13:17:41.437Z,30.16
2022-08-05T13:20:46.805Z,29.93
2022-08-05T13:23:50.537Z,29.79
2022-08-05T13:26:55.348Z,29.95
2022-08-05T13:30:34.474Z,30.79
2022-08-05T13:34:21.361Z,30.95
2022-08-05T13:36:46.758Z,31.15
2022-08-05T13:40:15.212Z,31.18
2022-08-05T13:43:22.168Z,31.29
2022-08-05T13:46:50.744Z,31.58
2022-08-05T13:49:52.374Z,31.44
2022-08-05T13:52:56.792Z,30.82
2022-08-05T13:56:02.257Z,30.05
2022-08-05T13:59:05.988Z,29.69
2022-08-05T14:02:26.580Z,29.46
2022-08-05T14:06:24.820Z,29.39
2022-08-05T14:08:57.002Z,29.08
2022-08-05T14:12:17.271Z,29.09
2022-08-05T14:16:04.718Z,29.33
2022-08-05T14:18:43.959Z,29.10
2022-08-05T14:22:08.794Z,29.06
2022-08-05T14:25:19.224Z,29.04
2022-08-05T14:28:26.697Z,28.93
2022-08-05T14:31:54.232Z,28.74
2022-08-05T14:34:53.744Z,28.78
2022-08-05T14:37:57.976Z,28.70
2022-08-05T14:41:07.862Z,28.53
2022-08-05T14:44:20.612Z,28.18
2022-08-05T14:48:04.093Z,28.48
2022-08-05T14:50:48.744Z,28.79
2022-08-05T14:54:25.925Z,28.87
2022-08-05T14:57:17.703Z,28.51
2022-08-05T15:00:21.402Z,28.36
2022-08-05T15:03:34.124Z,28.27
2022-08-05T15:06:42.262Z,28.22
2022-08-05T15:09:54.541Z,28.13
2022-08-05T15:13:03.736Z,28.18
2022-08-05T15:16:07.636Z,27.96
2022-08-05T15:19:23.381Z,27.86
2022-08-05T15:22:28.222Z,27.71
2022-08-05T15:25:51.006Z,27.61
2022-08-05T15:28:56.217Z,27.28
2022-08-05T15:32:03.267Z,27.00
2022-08-05T15:35:10.716Z,26.83
2022-08-05T15:38:35.663Z,26.68
2022-08-05T15:41:58.121Z,26.71
2022-08-05T15:45:02.999Z,26.75
2022-08-05T15:48:09.891Z,26.66
2022-08-05T15:51:22.406Z,26.68
2022-08-05T15:54:46.324Z,26.59
2022-08-05T15:57:49.616Z,26.63
2022-08-05T16:01:12.009Z,26.68
2022-08-05T16:04:18.109Z,26.37
2022-08-05T16:07:21.260Z,26.26
2022-08-05T16:10:26.875Z,26.07
2022-08-05T16:13:34.217Z,26.05
2022-08-05T16:16:39.662Z,25.98
2022-08-05T16:20:04.220Z,25.77
2022-08-05T16:23:08.459Z,25.61
2022-08-05T16:26:12.813Z,25.59
2022-08-05T16:29:15.856Z,25.55
2022-08-05T16:32:29.097Z,25.62
2022-08-05T16:35:34.624Z,25.52
2022-08-05T16:38:54.418Z,25.33
2022-08-05T16:42:27.858Z,25.26
2022-08-05T16:46:03.824Z,25.07
2022-08-05T16:48:45.775Z,24.96
2022-08-05T16:51:50.961Z,25.02
2022-08-05T16:54:54.519Z,25.02
2022-08-05T16:58:01.444Z,24.89
2022-08-05T17:01:07.087Z,24.87
2022-08-05T17:04:14.932Z,24.81
2022-08-05T17:07:38.961Z,24.91
2022-08-05T17:10:41.690Z,24.67
2022-08-05T17:13:45.897Z,24.47
2022-08-05T17:16:49.398Z,24.23
2022-08-05T17:19:58.226Z,23.88
2022-08-05T17:23:01.227Z,23.59
2022-08-05T17:26:05.804Z,23.59
2022-08-05T17:29:10.223Z,23.34
2022-08-05T17:32:17.063Z,23.16
2022-08-05T17:35:22.546Z,23.19
2022-08-05T17:38:25.540Z,23.01
2022-08-05T17:42:19.890Z,22.89
2022-08-05T17:44:53.012Z,22.83
2022-08-05T17:47:56.473Z,22.82
2022-08-05T17:51:00.885Z,22.75
2022-08-05T17:54:04.119Z,22.47
2022-08-05T17:57:12.057Z,22.15
2022-08-05T18:00:16.005Z,21.82
2022-08-05T18:06:45.729Z,21.56
2022-08-05T18:09:59.739Z,21.54
2022-08-05T18:13:07.571Z,21.51
2022-08-05T18:16:15.367Z,21.26
2022-08-05T18:19:26.045Z,21.25
2022-08-05T18:22:45.907Z,21.10
2022-08-05T18:25:57.492Z,20.94
2022-08-05T18:29:02.296Z,21.00
2022-08-05T18:32:06.972Z,21.09
2022-08-05T18:35:16.943Z,21.02
2022-08-05T18:38:26.444Z,20.87
2022-08-05T18:41:58.088Z,20.91
2022-08-05T18:44:56.612Z,20.79
2022-08-05T18:48:00.279Z,20.70
2022-08-05T18:52:06.034Z,20.56
2022-08-05T18:54:45.778Z,20.55
2022-08-05T18:57:52.665Z,20.50
2022-08-05T19:00:56.756Z,20.39
2022-08-05T19:03:59.740Z,20.39
2022-08-05T19:07:03.119Z,20.43
2022-08-05T19:10:11.857Z,20.39
2022-08-05T19:13:15.999Z,20.34
2022-08-05T19:16:25.094Z,20.30
2022-08-05T19:19:32.275Z,20.35
2022-08-05T19:22:37.250Z,20.35
2022-08-05T19:25:44.450Z,20.39
2022-08-05T19:28:47.420Z,20.35
2022-08-05T19:31:51.503Z,20.34
2022-08-05T19:34:55.767Z,20.15
2022-08-05T19:38:06.711Z,20.21
2022-08-05T19:41:13.054Z,20.25
2022-08-05T19:44:16.216Z,20.25
2022-08-05T19:47:19.695Z,20.10
2022-08-05T19:50:22.748Z,19.87
2022-08-05T19:54:04.453Z,19.82
2022-08-05T19:56:53.888Z,19.93
2022-08-05T20:00:02.392Z,19.97
2022-08-05T20:03:15.066Z,19.81
2022-08-05T20:06:28.705Z,19.73
2022-08-05T20:09:54.503Z,19.69
2022-08-05T20:12:56.958Z,19.80
2022-08-05T20:15:59.954Z,19.71
2022-08-05T20:19:03.377Z,19.77
2022-08-05T20:22:06.544Z,19.81
2022-08-05T20:25:12.831Z,19.64
2022-08-05T20:28:17.204Z,19.46
2022-08-05T20:31:28.433Z,19.48
2022-08-05T20:34:44.987Z,19.51
2022-08-05T20:38:05.832Z,19.51
2022-08-05T20:41:10.969Z,19.47
2022-08-05T20:44:30.583Z,19.31
2022-08-05T20:47:34.152Z,19.33
2022-08-05T20:50:45.527Z,19.33
2022-08-05T20:53:56.727Z,19.34
2022-08-05T20:57:00.321Z,19.24
2022-08-05T21:00:41.523Z,19.33
2022-08-05T21:03:35.033Z,19.33
2022-08-05T21:06:45.035Z,19.22
2022-08-05T21:09:53.825Z,19.11
2022-08-05T21:13:08.268Z,19.11
2022-08-05T21:16:15.634Z,19.09
2022-08-05T21:19:19.076Z,19.12
2022-08-05T21:22:24.017Z,19.09
2022-08-05T21:25:33.844Z,19.00
2022-08-05T21:28:37.379Z,18.91
2022-08-05T21:31:42.865Z,18.97
2022-08-05T21:34:45.914Z,18.94
2022-08-05T21:38:08.918Z,18.91
2022-08-05T21:41:12.020Z,18.81
2022-08-05T21:44:15.485Z,18.80
2022-08-05T21:47:54.942Z,18.83
2022-08-05T21:50:54.114Z,18.91
2022-08-05T21:53:59.631Z,18.85
2022-08-05T21:57:30.799Z,18.71
2022-08-05T22:00:30.962Z,18.62
2022-08-05T22:03:52.139Z,18.64
2022-08-05T22:06:57.088Z,18.63
2022-08-05T22:10:00.495Z,18.55
2022-08-05T22:13:09.200Z,18.54
2022-08-05T22:16:42.148Z,18.56
2022-08-05T22:20:00.579Z,18.54
2022-08-05T22:23:24.468Z,18.46
2022-08-05T22:26:49.821Z,18.40
2022-08-05T22:29:54.310Z,18.32
2022-08-05T22:32:57.349Z,18.34
2022-08-05T22:36:02.462Z,18.38
2022-08-05T22:39:09.598Z,18.35
2022-08-05T22:42:25.364Z,18.38
2022-08-05T22:45:30.680Z,18.38
2022-08-05T22:48:34.228Z,18.36
2022-08-05T22:52:05.527Z,18.34
2022-08-05T22:55:04.462Z,18.32
2022-08-05T22:58:28.152Z,18.22
2022-08-05T23:02:05.081Z,18.19
2022-08-05T23:04:55.109Z,18.24
2022-08-05T23:07:59.606Z,18.08
2022-08-05T23:11:02.739Z,18.02
2022-08-05T23:14:05.805Z,17.95
2022-08-05T23:17:34.887Z,17.87
2022-08-05T23:20:42.208Z,17.80
2022-08-05T23:23:48.008Z,17.77
2022-08-05T23:26:50.987Z,17.68
2022-08-05T23:29:54.112Z,17.61
2022-08-05T23:32:57.699Z,17.50
2022-08-05T23:36:02.175Z,17.43
2022-08-05T23:39:07.188Z,17.38
2022-08-05T23:42:14.468Z,17.36
2022-08-05T23:45:18.146Z,17.35
2022-08-05T23:48:22.808Z,17.32
2022-08-05T23:51:54.042Z,17.24
2022-08-05T23:55:01.905Z,17.18
2022-08-05T23:58:31.651Z,17.14
